sensor_id;sensor_type;location;lat;lon;timestamp;temperature;humidity
28677;DHT22;15858;48.338;11.078;2023-11-19T00:01:24;6.10;99.90
28677;DHT22;15858;48.338;11.078;2023-11-19T00:03:51;6.20;99.90
28677;DHT22;15858;48.338;11.078;2023-11-19T00:06:17;6.30;99.90
28677;DHT22;15858;48.338;11.078;2023-11-19T00:08:44;6.30;99.90
28677;DHT22;15858;48.338;11.078;2023-11-19T00:11:11;6.30;99.90
28677;DHT22;15858;48.338;11.078;2023-11-19T00:13:37;6.30;99.90
28677;DHT22;15858;48.338;11.078;2023-11-19T00:16:04;6.30;99.90
28677;DHT22;15858;48.338;11.078;2023-11-19T00:18:31;6.40;99.90
28677;DHT22;15858;48.338;11.078;2023-11-19T00:20:58;6.40;99.90
28677;DHT22;15858;48.338;11.078;2023-11-19T00:23:25;6.40;99.90
28677;DHT22;15858;48.338;11.078;2023-11-19T00:25:51;6.50;99.90
28677;DHT22;15858;48.338;11.078;2023-11-19T00:28:18;6.50;99.90
28677;DHT22;15858;48.338;11.078;2023-11-19T00:30:45;6.60;99.90
28677;DHT22;15858;48.338;11.078;2023-11-19T00:33:11;6.60;99.90
28677;DHT22;15858;48.338;11.078;2023-11-19T00:35:38;6.70;99.90
28677;DHT22;15858;48.338;11.078;2023-11-19T00:38:04;6.70;99.90
28677;DHT22;15858;48.338;11.078;2023-11-19T00:40:31;6.70;99.90
28677;DHT22;15858;48.338;11.078;2023-11-19T00:42:58;6.80;99.90
28677;DHT22;15858;48.338;11.078;2023-11-19T00:45:27;6.80;99.90
28677;DHT22;15858;48.338;11.078;2023-11-19T00:47:53;6.80;99.90
28677;DHT22;15858;48.338;11.078;2023-11-19T00:50:20;6.80;99.90
28677;DHT22;15858;48.338;11.078;2023-11-19T00:52:47;6.90;99.90
28677;DHT22;15858;48.338;11.078;2023-11-19T00:55:13;7.00;99.90
28677;DHT22;15858;48.338;11.078;2023-11-19T00:57:40;7.00;99.90
28677;DHT22;15858;48.338;11.078;2023-11-19T01:00:07;7.00;99.90
28677;DHT22;15858;48.338;11.078;2023-11-19T01:02:34;7.00;99.90
28677;DHT22;15858;48.338;11.078;2023-11-19T01:05:00;7.10;99.90
28677;DHT22;15858;48.338;11.078;2023-11-19T01:07:27;7.10;99.90
28677;DHT22;15858;48.338;11.078;2023-11-19T01:09:54;7.10;99.90
28677;DHT22;15858;48.338;11.078;2023-11-19T01:12:20;7.10;99.90
28677;DHT22;15858;48.338;11.078;2023-11-19T01:14:47;7.10;99.90
28677;DHT22;15858;48.338;11.078;2023-11-19T01:17:14;7.20;99.90
28677;DHT22;15858;48.338;11.078;2023-11-19T01:19:40;7.10;99.90
28677;DHT22;15858;48.338;11.078;2023-11-19T01:22:07;7.20;99.90
28677;DHT22;15858;48.338;11.078;2023-11-19T01:24:34;7.20;99.90
28677;DHT22;15858;48.338;11.078;2023-11-19T01:27:00;7.30;99.90
28677;DHT22;15858;48.338;11.078;2023-11-19T01:29:27;7.30;99.90
28677;DHT22;15858;48.338;11.078;2023-11-19T01:31:55;7.30;99.90
28677;DHT22;15858;48.338;11.078;2023-11-19T01:34:22;7.40;99.90
28677;DHT22;15858;48.338;11.078;2023-11-19T01:36:48;7.40;99.90
28677;DHT22;15858;48.338;11.078;2023-11-19T01:39:16;7.40;99.90
28677;DHT22;15858;48.338;11.078;2023-11-19T01:41:43;7.50;99.90
28677;DHT22;15858;48.338;11.078;2023-11-19T01:44:09;7.60;99.90
28677;DHT22;15858;48.338;11.078;2023-11-19T01:46:36;7.60;99.90
28677;DHT22;15858;48.338;11.078;2023-11-19T01:49:03;7.70;99.90
28677;DHT22;15858;48.338;11.078;2023-11-19T01:51:31;7.80;99.90
28677;DHT22;15858;48.338;11.078;2023-11-19T01:53:58;7.80;99.90
28677;DHT22;15858;48.338;11.078;2023-11-19T01:56:25;7.90;99.90
28677;DHT22;15858;48.338;11.078;2023-11-19T01:58:54;7.90;99.90
28677;DHT22;15858;48.338;11.078;2023-11-19T02:01:21;7.90;99.90
28677;DHT22;15858;48.338;11.078;2023-11-19T02:03:48;8.00;99.90
28677;DHT22;15858;48.338;11.078;2023-11-19T02:06:15;7.90;99.90
28677;DHT22;15858;48.338;11.078;2023-11-19T02:08:42;8.00;99.90
28677;DHT22;15858;48.338;11.078;2023-11-19T02:11:09;8.00;99.90
28677;DHT22;15858;48.338;11.078;2023-11-19T02:13:37;8.00;99.90
28677;DHT22;15858;48.338;11.078;2023-11-19T02:16:05;8.10;99.90
28677;DHT22;15858;48.338;11.078;2023-11-19T02:18:31;8.10;99.90
28677;DHT22;15858;48.338;11.078;2023-11-19T02:20:58;8.10;99.90
28677;DHT22;15858;48.338;11.078;2023-11-19T02:23:28;8.10;99.90
28677;DHT22;15858;48.338;11.078;2023-11-19T02:26:44;8.20;99.90
28677;DHT22;15858;48.338;11.078;2023-11-19T02:29:12;8.10;99.90
28677;DHT22;15858;48.338;11.078;2023-11-19T02:31:39;8.20;99.90
28677;DHT22;15858;48.338;11.078;2023-11-19T02:34:06;8.10;99.90
28677;DHT22;15858;48.338;11.078;2023-11-19T02:36:32;8.20;99.90
28677;DHT22;15858;48.338;11.078;2023-11-19T02:38:59;8.20;99.90
28677;DHT22;15858;48.338;11.078;2023-11-19T02:41:26;8.20;99.90
28677;DHT22;15858;48.338;11.078;2023-11-19T02:43:52;8.20;99.90
28677;DHT22;15858;48.338;11.078;2023-11-19T02:46:19;8.10;99.90
28677;DHT22;15858;48.338;11.078;2023-11-19T02:48:46;8.20;99.90
28677;DHT22;15858;48.338;11.078;2023-11-19T02:51:12;8.10;99.90
28677;DHT22;15858;48.338;11.078;2023-11-19T02:53:39;8.10;99.90
28677;DHT22;15858;48.338;11.078;2023-11-19T02:56:07;8.20;99.90
28677;DHT22;15858;48.338;11.078;2023-11-19T02:58:34;8.30;99.90
28677;DHT22;15858;48.338;11.078;2023-11-19T03:01:00;8.20;99.90
28677;DHT22;15858;48.338;11.078;2023-11-19T03:03:28;8.20;99.90
28677;DHT22;15858;48.338;11.078;2023-11-19T03:05:55;8.20;99.90
28677;DHT22;15858;48.338;11.078;2023-11-19T03:08:21;8.20;99.90
28677;DHT22;15858;48.338;11.078;2023-11-19T03:10:49;8.20;99.90
28677;DHT22;15858;48.338;11.078;2023-11-19T03:13:16;8.20;99.90
28677;DHT22;15858;48.338;11.078;2023-11-19T03:15:43;8.20;99.90
28677;DHT22;15858;48.338;11.078;2023-11-19T03:18:10;8.20;99.90
28677;DHT22;15858;48.338;11.078;2023-11-19T03:20:37;8.20;99.90
28677;DHT22;15858;48.338;11.078;2023-11-19T03:23:03;8.20;99.90
28677;DHT22;15858;48.338;11.078;2023-11-19T03:25:30;8.20;99.90
28677;DHT22;15858;48.338;11.078;2023-11-19T03:27:57;8.30;99.90
28677;DHT22;15858;48.338;11.078;2023-11-19T03:30:23;8.30;99.90
28677;DHT22;15858;48.338;11.078;2023-11-19T03:33:00;8.30;99.90
28677;DHT22;15858;48.338;11.078;2023-11-19T03:35:26;8.40;99.90
28677;DHT22;15858;48.338;11.078;2023-11-19T03:37:53;8.40;99.90
28677;DHT22;15858;48.338;11.078;2023-11-19T03:40:20;8.30;99.90
28677;DHT22;15858;48.338;11.078;2023-11-19T03:42:47;8.30;99.90
28677;DHT22;15858;48.338;11.078;2023-11-19T03:45:13;8.40;99.90
28677;DHT22;15858;48.338;11.078;2023-11-19T03:47:40;8.40;99.90
28677;DHT22;15858;48.338;11.078;2023-11-19T03:50:07;8.40;99.90
28677;DHT22;15858;48.338;11.078;2023-11-19T03:52:37;8.40;99.90
28677;DHT22;15858;48.338;11.078;2023-11-19T03:55:08;8.50;99.90
28677;DHT22;15858;48.338;11.078;2023-11-19T03:57:35;8.50;99.90
28677;DHT22;15858;48.338;11.078;2023-11-19T04:00:02;8.40;99.90
28677;DHT22;15858;48.338;11.078;2023-11-19T04:02:29;8.50;99.90
28677;DHT22;15858;48.338;11.078;2023-11-19T04:04:55;8.40;99.90
28677;DHT22;15858;48.338;11.078;2023-11-19T04:07:22;8.50;99.90
28677;DHT22;15858;48.338;11.078;2023-11-19T04:09:49;8.50;99.90
28677;DHT22;15858;48.338;11.078;2023-11-19T04:12:15;8.60;99.90
28677;DHT22;15858;48.338;11.078;2023-11-19T04:14:42;8.50;99.90
28677;DHT22;15858;48.338;11.078;2023-11-19T04:17:09;8.50;99.90
28677;DHT22;15858;48.338;11.078;2023-11-19T04:19:35;8.60;99.90
28677;DHT22;15858;48.338;11.078;2023-11-19T04:22:02;8.50;99.90
28677;DHT22;15858;48.338;11.078;2023-11-19T04:24:29;8.60;99.90
28677;DHT22;15858;48.338;11.078;2023-11-19T04:26:55;8.60;99.90
28677;DHT22;15858;48.338;11.078;2023-11-19T04:29:22;8.60;99.90
28677;DHT22;15858;48.338;11.078;2023-11-19T04:31:49;8.50;99.90
28677;DHT22;15858;48.338;11.078;2023-11-19T04:34:15;8.60;99.90
28677;DHT22;15858;48.338;11.078;2023-11-19T04:36:42;8.70;99.90
28677;DHT22;15858;48.338;11.078;2023-11-19T04:39:09;8.60;99.90
28677;DHT22;15858;48.338;11.078;2023-11-19T04:41:36;8.60;99.90
28677;DHT22;15858;48.338;11.078;2023-11-19T04:44:02;8.60;99.90
28677;DHT22;15858;48.338;11.078;2023-11-19T04:46:29;8.60;99.90
28677;DHT22;15858;48.338;11.078;2023-11-19T04:48:56;8.60;99.90
28677;DHT22;15858;48.338;11.078;2023-11-19T04:51:22;8.70;99.90
28677;DHT22;15858;48.338;11.078;2023-11-19T04:53:49;8.70;99.90
28677;DHT22;15858;48.338;11.078;2023-11-19T04:56:16;8.80;99.90
28677;DHT22;15858;48.338;11.078;2023-11-19T04:58:43;8.70;99.90
28677;DHT22;15858;48.338;11.078;2023-11-19T05:01:14;8.80;99.90
28677;DHT22;15858;48.338;11.078;2023-11-19T05:03:41;8.80;99.90
28677;DHT22;15858;48.338;11.078;2023-11-19T05:06:08;8.80;99.90
28677;DHT22;15858;48.338;11.078;2023-11-19T05:08:35;8.80;99.90
28677;DHT22;15858;48.338;11.078;2023-11-19T05:11:02;8.90;99.90
28677;DHT22;15858;48.338;11.078;2023-11-19T05:13:29;8.90;99.90
28677;DHT22;15858;48.338;11.078;2023-11-19T05:15:55;9.00;99.90
28677;DHT22;15858;48.338;11.078;2023-11-19T05:18:22;9.00;99.90
28677;DHT22;15858;48.338;11.078;2023-11-19T05:20:49;9.00;99.90
28677;DHT22;15858;48.338;11.078;2023-11-19T05:23:15;8.90;99.90
28677;DHT22;15858;48.338;11.078;2023-11-19T05:25:45;8.90;99.90
28677;DHT22;15858;48.338;11.078;2023-11-19T05:28:11;9.00;99.90
28677;DHT22;15858;48.338;11.078;2023-11-19T05:30:38;9.10;99.90
28677;DHT22;15858;48.338;11.078;2023-11-19T05:33:05;9.00;99.90
28677;DHT22;15858;48.338;11.078;2023-11-19T05:35:31;9.00;99.90
28677;DHT22;15858;48.338;11.078;2023-11-19T05:37:58;9.00;99.90
28677;DHT22;15858;48.338;11.078;2023-11-19T05:40:24;9.00;99.90
28677;DHT22;15858;48.338;11.078;2023-11-19T05:42:51;9.10;99.90
28677;DHT22;15858;48.338;11.078;2023-11-19T05:45:18;9.00;99.90
28677;DHT22;15858;48.338;11.078;2023-11-19T05:47:44;9.10;99.90
28677;DHT22;15858;48.338;11.078;2023-11-19T05:50:11;9.10;99.90
28677;DHT22;15858;48.338;11.078;2023-11-19T05:52:38;9.10;99.90
28677;DHT22;15858;48.338;11.078;2023-11-19T05:55:05;9.20;99.90
28677;DHT22;15858;48.338;11.078;2023-11-19T05:57:31;9.10;99.90
28677;DHT22;15858;48.338;11.078;2023-11-19T05:59:58;9.20;99.90
28677;DHT22;15858;48.338;11.078;2023-11-19T06:02:25;9.20;99.90
28677;DHT22;15858;48.338;11.078;2023-11-19T06:04:51;9.20;99.90
28677;DHT22;15858;48.338;11.078;2023-11-19T06:07:18;9.20;99.90
28677;DHT22;15858;48.338;11.078;2023-11-19T06:09:44;9.20;99.90
28677;DHT22;15858;48.338;11.078;2023-11-19T06:12:11;9.20;99.90
28677;DHT22;15858;48.338;11.078;2023-11-19T06:14:38;9.20;99.90
28677;DHT22;15858;48.338;11.078;2023-11-19T06:17:04;9.30;99.90
28677;DHT22;15858;48.338;11.078;2023-11-19T06:19:31;9.20;99.90
28677;DHT22;15858;48.338;11.078;2023-11-19T06:21:57;9.20;99.90
28677;DHT22;15858;48.338;11.078;2023-11-19T06:24:24;9.30;99.90
28677;DHT22;15858;48.338;11.078;2023-11-19T06:26:51;9.30;99.90
28677;DHT22;15858;48.338;11.078;2023-11-19T06:29:17;9.30;99.90
28677;DHT22;15858;48.338;11.078;2023-11-19T06:31:44;9.30;99.90
28677;DHT22;15858;48.338;11.078;2023-11-19T06:34:11;9.40;99.90
28677;DHT22;15858;48.338;11.078;2023-11-19T06:36:37;9.40;99.90
28677;DHT22;15858;48.338;11.078;2023-11-19T06:39:04;9.40;99.90
28677;DHT22;15858;48.338;11.078;2023-11-19T06:41:31;9.40;99.90
28677;DHT22;15858;48.338;11.078;2023-11-19T06:43:57;9.40;99.90
28677;DHT22;15858;48.338;11.078;2023-11-19T06:46:24;9.40;99.90
28677;DHT22;15858;48.338;11.078;2023-11-19T06:48:51;9.50;99.90
28677;DHT22;15858;48.338;11.078;2023-11-19T06:51:17;9.50;99.90
28677;DHT22;15858;48.338;11.078;2023-11-19T06:53:44;9.50;99.90
28677;DHT22;15858;48.338;11.078;2023-11-19T06:56:21;9.50;99.90
28677;DHT22;15858;48.338;11.078;2023-11-19T06:58:49;9.60;99.90
28677;DHT22;15858;48.338;11.078;2023-11-19T07:01:16;9.60;99.90
28677;DHT22;15858;48.338;11.078;2023-11-19T07:03:47;9.70;99.90
28677;DHT22;15858;48.338;11.078;2023-11-19T07:06:14;9.60;99.90
28677;DHT22;15858;48.338;11.078;2023-11-19T07:08:41;9.70;99.90
28677;DHT22;15858;48.338;11.078;2023-11-19T07:11:08;9.70;99.90
28677;DHT22;15858;48.338;11.078;2023-11-19T07:13:35;9.70;99.90
28677;DHT22;15858;48.338;11.078;2023-11-19T07:16:02;9.70;99.90
28677;DHT22;15858;48.338;11.078;2023-11-19T07:18:28;9.80;99.90
28677;DHT22;15858;48.338;11.078;2023-11-19T07:20:55;9.80;99.90
28677;DHT22;15858;48.338;11.078;2023-11-19T07:23:22;9.80;99.90
28677;DHT22;15858;48.338;11.078;2023-11-19T07:25:48;9.80;99.90
28677;DHT22;15858;48.338;11.078;2023-11-19T07:28:15;9.80;99.90
28677;DHT22;15858;48.338;11.078;2023-11-19T07:30:42;9.80;99.90
28677;DHT22;15858;48.338;11.078;2023-11-19T07:33:08;9.90;99.90
28677;DHT22;15858;48.338;11.078;2023-11-19T07:35:35;9.80;99.90
28677;DHT22;15858;48.338;11.078;2023-11-19T07:38:01;9.90;99.90
28677;DHT22;15858;48.338;11.078;2023-11-19T07:40:28;9.90;99.90
28677;DHT22;15858;48.338;11.078;2023-11-19T07:42:55;9.90;99.90
28677;DHT22;15858;48.338;11.078;2023-11-19T07:45:21;10.00;99.90
28677;DHT22;15858;48.338;11.078;2023-11-19T07:47:48;10.00;99.90
28677;DHT22;15858;48.338;11.078;2023-11-19T07:50:15;10.00;99.90
28677;DHT22;15858;48.338;11.078;2023-11-19T07:52:41;10.00;99.90
28677;DHT22;15858;48.338;11.078;2023-11-19T07:55:08;10.10;99.90
28677;DHT22;15858;48.338;11.078;2023-11-19T07:57:35;10.10;99.90
28677;DHT22;15858;48.338;11.078;2023-11-19T08:00:02;10.10;99.90
28677;DHT22;15858;48.338;11.078;2023-11-19T08:02:28;10.10;99.90
28677;DHT22;15858;48.338;11.078;2023-11-19T08:04:55;10.20;99.90
28677;DHT22;15858;48.338;11.078;2023-11-19T08:07:22;10.20;99.90
28677;DHT22;15858;48.338;11.078;2023-11-19T08:09:49;10.30;99.90
28677;DHT22;15858;48.338;11.078;2023-11-19T08:12:15;10.30;99.90
28677;DHT22;15858;48.338;11.078;2023-11-19T08:14:42;10.30;99.90
28677;DHT22;15858;48.338;11.078;2023-11-19T08:17:09;10.40;99.90
28677;DHT22;15858;48.338;11.078;2023-11-19T08:19:36;10.40;99.90
28677;DHT22;15858;48.338;11.078;2023-11-19T08:22:03;10.40;99.90
28677;DHT22;15858;48.338;11.078;2023-11-19T08:24:29;10.40;99.90
28677;DHT22;15858;48.338;11.078;2023-11-19T08:26:56;10.40;99.90
28677;DHT22;15858;48.338;11.078;2023-11-19T08:29:26;10.50;99.90
28677;DHT22;15858;48.338;11.078;2023-11-19T08:31:52;10.40;99.90
28677;DHT22;15858;48.338;11.078;2023-11-19T08:34:19;10.50;99.90
28677;DHT22;15858;48.338;11.078;2023-11-19T08:36:45;10.50;99.90
28677;DHT22;15858;48.338;11.078;2023-11-19T08:39:12;10.50;99.90
28677;DHT22;15858;48.338;11.078;2023-11-19T08:41:39;10.60;99.90
28677;DHT22;15858;48.338;11.078;2023-11-19T08:44:05;10.60;99.90
28677;DHT22;15858;48.338;11.078;2023-11-19T08:46:32;10.50;99.90
28677;DHT22;15858;48.338;11.078;2023-11-19T08:48:59;10.60;99.90
28677;DHT22;15858;48.338;11.078;2023-11-19T08:51:25;10.70;99.90
28677;DHT22;15858;48.338;11.078;2023-11-19T08:53:52;10.70;99.90
28677;DHT22;15858;48.338;11.078;2023-11-19T08:56:19;10.80;99.90
28677;DHT22;15858;48.338;11.078;2023-11-19T08:58:45;10.80;99.90
28677;DHT22;15858;48.338;11.078;2023-11-19T09:01:12;10.80;99.90
28677;DHT22;15858;48.338;11.078;2023-11-19T09:03:39;10.80;99.90
28677;DHT22;15858;48.338;11.078;2023-11-19T09:06:06;10.90;99.90
28677;DHT22;15858;48.338;11.078;2023-11-19T09:08:32;10.90;99.90
28677;DHT22;15858;48.338;11.078;2023-11-19T09:10:59;11.00;99.90
28677;DHT22;15858;48.338;11.078;2023-11-19T09:13:26;11.10;99.90
28677;DHT22;15858;48.338;11.078;2023-11-19T09:15:52;11.20;99.90
28677;DHT22;15858;48.338;11.078;2023-11-19T09:18:19;11.30;99.90
28677;DHT22;15858;48.338;11.078;2023-11-19T09:20:46;11.30;99.90
28677;DHT22;15858;48.338;11.078;2023-11-19T09:23:12;11.30;99.90
28677;DHT22;15858;48.338;11.078;2023-11-19T09:25:39;11.10;99.90
28677;DHT22;15858;48.338;11.078;2023-11-19T09:28:09;11.10;99.90
28677;DHT22;15858;48.338;11.078;2023-11-19T09:30:36;11.00;99.90
28677;DHT22;15858;48.338;11.078;2023-11-19T09:33:02;11.10;99.90
28677;DHT22;15858;48.338;11.078;2023-11-19T09:35:29;11.20;99.90
28677;DHT22;15858;48.338;11.078;2023-11-19T09:37:56;11.10;99.90
28677;DHT22;15858;48.338;11.078;2023-11-19T09:40:23;11.20;99.90
28677;DHT22;15858;48.338;11.078;2023-11-19T09:42:50;11.40;99.90
28677;DHT22;15858;48.338;11.078;2023-11-19T09:45:17;11.30;99.90
28677;DHT22;15858;48.338;11.078;2023-11-19T09:47:47;11.50;99.90
28677;DHT22;15858;48.338;11.078;2023-11-19T09:50:19;11.70;99.90
28677;DHT22;15858;48.338;11.078;2023-11-19T09:52:48;11.60;99.90
28677;DHT22;15858;48.338;11.078;2023-11-19T09:55:15;11.70;99.90
28677;DHT22;15858;48.338;11.078;2023-11-19T09:57:43;11.90;99.90
28677;DHT22;15858;48.338;11.078;2023-11-19T10:00:12;11.90;99.90
28677;DHT22;15858;48.338;11.078;2023-11-19T10:02:39;12.00;99.90
28677;DHT22;15858;48.338;11.078;2023-11-19T10:05:07;11.90;99.90
28677;DHT22;15858;48.338;11.078;2023-11-19T10:07:34;12.10;99.90
28677;DHT22;15858;48.338;11.078;2023-11-19T10:10:02;12.00;99.90
28677;DHT22;15858;48.338;11.078;2023-11-19T10:12:29;11.90;99.90
28677;DHT22;15858;48.338;11.078;2023-11-19T10:14:59;12.20;99.90
28677;DHT22;15858;48.338;11.078;2023-11-19T10:17:33;12.30;99.90
28677;DHT22;15858;48.338;11.078;2023-11-19T10:20:00;12.30;99.90
28677;DHT22;15858;48.338;11.078;2023-11-19T10:22:30;12.50;99.90
28677;DHT22;15858;48.338;11.078;2023-11-19T10:24:56;12.40;99.90
28677;DHT22;15858;48.338;11.078;2023-11-19T10:27:26;12.50;99.90
28677;DHT22;15858;48.338;11.078;2023-11-19T10:29:53;12.30;99.90
28677;DHT22;15858;48.338;11.078;2023-11-19T10:32:19;12.40;99.90
28677;DHT22;15858;48.338;11.078;2023-11-19T10:35:06;12.30;99.90
28677;DHT22;15858;48.338;11.078;2023-11-19T10:37:33;12.50;99.90
28677;DHT22;15858;48.338;11.078;2023-11-19T10:40:00;12.30;99.90
28677;DHT22;15858;48.338;11.078;2023-11-19T10:42:27;12.30;99.90
28677;DHT22;15858;48.338;11.078;2023-11-19T10:44:53;12.40;99.90
28677;DHT22;15858;48.338;11.078;2023-11-19T10:47:22;12.30;99.90
28677;DHT22;15858;48.338;11.078;2023-11-19T10:49:52;12.30;99.90
28677;DHT22;15858;48.338;11.078;2023-11-19T10:52:19;12.30;99.90
28677;DHT22;15858;48.338;11.078;2023-11-19T10:54:49;12.20;99.90
28677;DHT22;15858;48.338;11.078;2023-11-19T10:57:20;12.20;99.90
28677;DHT22;15858;48.338;11.078;2023-11-19T10:59:47;12.30;99.90
28677;DHT22;15858;48.338;11.078;2023-11-19T11:02:19;12.30;99.90
28677;DHT22;15858;48.338;11.078;2023-11-19T11:04:47;12.20;99.90
28677;DHT22;15858;48.338;11.078;2023-11-19T11:07:21;12.30;99.90
28677;DHT22;15858;48.338;11.078;2023-11-19T11:10:02;12.20;99.90
28677;DHT22;15858;48.338;11.078;2023-11-19T11:12:30;12.40;99.90
28677;DHT22;15858;48.338;11.078;2023-11-19T11:14:58;12.40;99.90
28677;DHT22;15858;48.338;11.078;2023-11-19T11:17:28;12.20;99.90
28677;DHT22;15858;48.338;11.078;2023-11-19T11:19:57;12.40;99.90
28677;DHT22;15858;48.338;11.078;2023-11-19T11:22:24;12.20;99.90
28677;DHT22;15858;48.338;11.078;2023-11-19T11:25:16;12.40;99.90
28677;DHT22;15858;48.338;11.078;2023-11-19T11:28:09;12.30;99.90
28677;DHT22;15858;48.338;11.078;2023-11-19T11:30:55;12.60;99.90
28677;DHT22;15858;48.338;11.078;2023-11-19T11:33:57;12.40;99.90
28677;DHT22;15858;48.338;11.078;2023-11-19T11:36:33;12.60;99.90
28677;DHT22;15858;48.338;11.078;2023-11-19T11:39:02;12.50;99.90
28677;DHT22;15858;48.338;11.078;2023-11-19T11:41:29;12.60;99.90
28677;DHT22;15858;48.338;11.078;2023-11-19T11:43:56;12.70;99.90
28677;DHT22;15858;48.338;11.078;2023-11-19T11:49:03;12.80;99.90
28677;DHT22;15858;48.338;11.078;2023-11-19T12:02:10;12.90;99.90
28677;DHT22;15858;48.338;11.078;2023-11-19T12:04:37;12.80;99.90
28677;DHT22;15858;48.338;11.078;2023-11-19T12:07:12;13.00;99.90
28677;DHT22;15858;48.338;11.078;2023-11-19T12:09:41;13.00;99.90
28677;DHT22;15858;48.338;11.078;2023-11-19T12:15:08;13.10;99.90
28677;DHT22;15858;48.338;11.078;2023-11-19T12:18:08;12.90;99.90
28677;DHT22;15858;48.338;11.078;2023-11-19T12:20:28;13.00;99.90
28677;DHT22;15858;48.338;11.078;2023-11-19T12:22:57;13.10;99.90
28677;DHT22;15858;48.338;11.078;2023-11-19T12:25:24;13.00;99.90
28677;DHT22;15858;48.338;11.078;2023-11-19T12:27:52;13.10;99.90
28677;DHT22;15858;48.338;11.078;2023-11-19T12:30:24;13.20;99.90
28677;DHT22;15858;48.338;11.078;2023-11-19T12:32:51;13.00;99.90
28677;DHT22;15858;48.338;11.078;2023-11-19T12:35:18;13.10;99.90
28677;DHT22;15858;48.338;11.078;2023-11-19T12:37:49;13.00;99.90
28677;DHT22;15858;48.338;11.078;2023-11-19T12:42:45;12.90;99.90
28677;DHT22;15858;48.338;11.078;2023-11-19T12:45:12;12.90;99.90
28677;DHT22;15858;48.338;11.078;2023-11-19T12:47:40;12.70;99.90
28677;DHT22;15858;48.338;11.078;2023-11-19T12:50:07;13.00;99.90
28677;DHT22;15858;48.338;11.078;2023-11-19T12:52:38;12.80;99.90
28677;DHT22;15858;48.338;11.078;2023-11-19T12:55:24;12.80;99.90
28677;DHT22;15858;48.338;11.078;2023-11-19T12:57:56;13.10;99.90
28677;DHT22;15858;48.338;11.078;2023-11-19T13:00:24;13.20;99.90
28677;DHT22;15858;48.338;11.078;2023-11-19T13:02:55;13.10;99.90
28677;DHT22;15858;48.338;11.078;2023-11-19T13:05:28;13.10;99.90
28677;DHT22;15858;48.338;11.078;2023-11-19T13:08:03;13.00;99.90
28677;DHT22;15858;48.338;11.078;2023-11-19T13:13:16;13.00;99.90
28677;DHT22;15858;48.338;11.078;2023-11-19T13:15:42;12.90;99.90
28677;DHT22;15858;48.338;11.078;2023-11-19T13:18:09;13.00;99.90
28677;DHT22;15858;48.338;11.078;2023-11-19T13:20:37;12.90;99.90
28677;DHT22;15858;48.338;11.078;2023-11-19T13:23:05;13.00;99.90
28677;DHT22;15858;48.338;11.078;2023-11-19T13:25:32;13.00;99.90
28677;DHT22;15858;48.338;11.078;2023-11-19T13:27:59;13.10;99.90
28677;DHT22;15858;48.338;11.078;2023-11-19T13:30:26;13.30;99.90
28677;DHT22;15858;48.338;11.078;2023-11-19T13:32:54;13.10;99.90
28677;DHT22;15858;48.338;11.078;2023-11-19T13:35:21;13.10;99.90
28677;DHT22;15858;48.338;11.078;2023-11-19T13:37:48;13.10;99.90
28677;DHT22;15858;48.338;11.078;2023-11-19T13:40:15;13.20;99.90
28677;DHT22;15858;48.338;11.078;2023-11-19T13:42:42;13.30;99.90
28677;DHT22;15858;48.338;11.078;2023-11-19T13:45:11;13.20;99.90
28677;DHT22;15858;48.338;11.078;2023-11-19T13:47:43;13.20;99.90
28677;DHT22;15858;48.338;11.078;2023-11-19T13:50:12;13.40;99.90
28677;DHT22;15858;48.338;11.078;2023-11-19T13:52:41;13.50;99.90
28677;DHT22;15858;48.338;11.078;2023-11-19T13:55:09;13.40;99.90
28677;DHT22;15858;48.338;11.078;2023-11-19T13:57:36;13.30;99.90
28677;DHT22;15858;48.338;11.078;2023-11-19T14:00:05;13.50;99.90
28677;DHT22;15858;48.338;11.078;2023-11-19T14:02:34;13.30;99.90
28677;DHT22;15858;48.338;11.078;2023-11-19T14:05:01;13.40;99.90
28677;DHT22;15858;48.338;11.078;2023-11-19T14:07:28;13.30;99.90
28677;DHT22;15858;48.338;11.078;2023-11-19T14:09:55;13.40;99.90
28677;DHT22;15858;48.338;11.078;2023-11-19T14:12:21;13.40;99.90
28677;DHT22;15858;48.338;11.078;2023-11-19T14:14:48;13.30;99.90
28677;DHT22;15858;48.338;11.078;2023-11-19T14:17:15;13.30;99.90
28677;DHT22;15858;48.338;11.078;2023-11-19T14:19:42;13.30;99.90
28677;DHT22;15858;48.338;11.078;2023-11-19T14:22:09;13.40;99.90
28677;DHT22;15858;48.338;11.078;2023-11-19T14:24:36;13.40;99.90
28677;DHT22;15858;48.338;11.078;2023-11-19T14:27:02;13.30;99.90
28677;DHT22;15858;48.338;11.078;2023-11-19T14:29:29;13.40;99.90
28677;DHT22;15858;48.338;11.078;2023-11-19T14:31:56;13.30;99.90
28677;DHT22;15858;48.338;11.078;2023-11-19T14:34:23;13.40;99.90
28677;DHT22;15858;48.338;11.078;2023-11-19T14:36:50;13.40;99.90
28677;DHT22;15858;48.338;11.078;2023-11-19T14:39:16;13.30;99.90
28677;DHT22;15858;48.338;11.078;2023-11-19T14:41:43;13.30;99.90
28677;DHT22;15858;48.338;11.078;2023-11-19T14:44:10;13.40;99.90
28677;DHT22;15858;48.338;11.078;2023-11-19T14:46:37;13.30;99.90
28677;DHT22;15858;48.338;11.078;2023-11-19T14:49:04;13.30;99.90
28677;DHT22;15858;48.338;11.078;2023-11-19T14:51:31;13.30;99.90
28677;DHT22;15858;48.338;11.078;2023-11-19T14:53:57;13.30;99.90
28677;DHT22;15858;48.338;11.078;2023-11-19T14:56:24;13.20;99.90
28677;DHT22;15858;48.338;11.078;2023-11-19T14:58:51;13.10;99.90
28677;DHT22;15858;48.338;11.078;2023-11-19T15:01:17;13.00;99.90
28677;DHT22;15858;48.338;11.078;2023-11-19T15:03:44;12.90;99.90
28677;DHT22;15858;48.338;11.078;2023-11-19T15:06:14;12.90;99.90
28677;DHT22;15858;48.338;11.078;2023-11-19T15:08:40;12.90;99.90
28677;DHT22;15858;48.338;11.078;2023-11-19T15:11:08;12.90;99.90
28677;DHT22;15858;48.338;11.078;2023-11-19T15:13:35;12.80;99.90
28677;DHT22;15858;48.338;11.078;2023-11-19T15:16:02;12.80;99.90
28677;DHT22;15858;48.338;11.078;2023-11-19T15:18:28;12.70;99.90
28677;DHT22;15858;48.338;11.078;2023-11-19T15:20:55;12.90;99.90
28677;DHT22;15858;48.338;11.078;2023-11-19T15:23:21;12.70;99.90
28677;DHT22;15858;48.338;11.078;2023-11-19T15:25:48;12.70;99.90
28677;DHT22;15858;48.338;11.078;2023-11-19T15:28:15;12.80;99.90
28677;DHT22;15858;48.338;11.078;2023-11-19T15:30:42;12.70;99.90
28677;DHT22;15858;48.338;11.078;2023-11-19T15:33:08;12.70;99.90
28677;DHT22;15858;48.338;11.078;2023-11-19T15:35:35;12.60;99.90
28677;DHT22;15858;48.338;11.078;2023-11-19T15:38:02;12.50;99.90
28677;DHT22;15858;48.338;11.078;2023-11-19T15:40:28;12.40;99.90
28677;DHT22;15858;48.338;11.078;2023-11-19T15:42:55;12.40;99.90
28677;DHT22;15858;48.338;11.078;2023-11-19T15:45:22;12.50;99.90
28677;DHT22;15858;48.338;11.078;2023-11-19T15:47:49;12.30;99.90